Braytown, Indiana
Current Conditions -  °F | °C
As of 4:22 PM on Wednesday 26 Nov 2014 (Local Time) from KCVG Reporting Station
Broken Clouds Broken Clouds  
Wind Chill: 37°   Ceiling: 15000
Heat Index: 37°   Visibility: 10mi
Dew Point: 25°   Wind: 3mph
Humidity: 60%   Direction: 50°NE
Pressure: 30.03"   Gusts: NA
Location:  38.7865°N, 85.1073°W
Report Text: KCVG 262122Z 05003KT 10SM SCT030 BKN150 BKN200 03/M04 A3003 RMK AO2
Loading
Personal Weather Stations






























Interactive Weather Map New forecast layout! Learn more

10-Day Weather Forecast

Advertisements
Track Severe Weather on mobile